QFA450 YMML-YSSY
Flight info
| Callsign | QFA450 |
|---|---|
| Flight time | 1h 4m |
| Altitude | 35000 |
| Route | ML H129 DOSEL Y59 RIVET |
| Aircraft | A21N/M-SADE2E3GHIJ3J4J5LM1ORWYZ/LB1D1 |
Departure
| Time | 2026-05-04 08:24 |
|---|---|
| Airport | Melbourne Airport (YMML) |
Arrival
| Time | 2026-05-04 09:28 |
|---|---|
| Airport | Sydney Kingsford Smith International Airport (YSSY) |
| Time | Latitude | Longitude | Altitude | Speed | Heading |
|---|---|---|---|---|---|
| 2026-05-04 07:28 | -37.66676 | 144.85260 | 402 ft | 0 kts | 262° |
| 2026-05-04 08:05 | -37.66673 | 144.85288 | 402 ft | 4 kts | 264° |
| 2026-05-04 08:05 | -37.66668 | 144.85321 | 401 ft | 3 kts | 246° |
| 2026-05-04 08:05 | -37.66661 | 144.85345 | 399 ft | 4 kts | 275° |
| 2026-05-04 08:05 | -37.66671 | 144.85364 | 398 ft | 4 kts | 345° |
| 2026-05-04 08:06 | -37.66697 | 144.85369 | 398 ft | 3 kts | 352° |
| 2026-05-04 08:06 | -37.66700 | 144.85369 | 396 ft | 0 kts | 352° |
| 2026-05-04 08:14 | -37.66685 | 144.85367 | 396 ft | 5 kts | 353° |
| 2026-05-04 08:16 | -37.66651 | 144.84630 | 406 ft | 18 kts | 261° |
| 2026-05-04 08:16 | -37.66670 | 144.84466 | 403 ft | 19 kts | 262° |
| 2026-05-04 08:16 | -37.66689 | 144.84291 | 402 ft | 21 kts | 262° |
| 2026-05-04 08:17 | -37.66710 | 144.84105 | 401 ft | 22 kts | 262° |
| 2026-05-04 08:17 | -37.66788 | 144.83983 | 397 ft | 20 kts | 173° |
| 2026-05-04 08:17 | -37.66930 | 144.84010 | 393 ft | 21 kts | 171° |
| 2026-05-04 08:17 | -37.67081 | 144.84038 | 388 ft | 22 kts | 171° |
| 2026-05-04 08:19 | -37.67803 | 144.84172 | 367 ft | 0 kts | 172° |
| 2026-05-04 08:19 | -37.67807 | 144.84172 | 372 ft | 2 kts | 172° |
| 2026-05-04 08:20 | -37.67843 | 144.84175 | 365 ft | 6 kts | 190° |
| 2026-05-04 08:20 | -37.67871 | 144.84132 | 368 ft | 6 kts | 257° |
| 2026-05-04 08:20 | -37.67873 | 144.84117 | 367 ft | 0 kts | 262° |
| 2026-05-04 08:22 | -37.67874 | 144.84112 | 366 ft | 2 kts | 262° |
| 2026-05-04 08:22 | -37.67876 | 144.84092 | 363 ft | 3 kts | 262° |
| 2026-05-04 08:24 | -37.66941 | 144.83796 | 391 ft | 129 kts | 351° |
| 2026-05-04 08:24 | -37.65968 | 144.83604 | 750 ft | 143 kts | 351° |
| 2026-05-04 08:24 | -37.64980 | 144.83399 | 1363 ft | 146 kts | 349° |
| 2026-05-04 08:24 | -37.63970 | 144.83214 | 2035 ft | 147 kts | 348° |
| 2026-05-04 08:25 | -37.62916 | 144.83020 | 2542 ft | 161 kts | 347° |
| 2026-05-04 08:25 | -37.61739 | 144.82790 | 3091 ft | 180 kts | 345° |
| 2026-05-04 08:25 | -37.60426 | 144.82541 | 3621 ft | 203 kts | 346° |
| 2026-05-04 08:25 | -37.58919 | 144.82531 | 4077 ft | 237 kts | 4° |
| 2026-05-04 08:26 | -37.57289 | 144.83289 | 4859 ft | 256 kts | 18° |
| 2026-05-04 08:27 | -37.45225 | 144.90747 | 10550 ft | 309 kts | 21° |
| 2026-05-04 08:28 | -37.43395 | 144.92324 | 10866 ft | 339 kts | 39° |
| 2026-05-04 08:28 | -37.41847 | 144.94716 | 11259 ft | 361 kts | 51° |
| 2026-05-04 08:28 | -37.40401 | 144.97345 | 11972 ft | 368 kts | 52° |
| 2026-05-04 08:28 | -37.38939 | 145.00013 | 12780 ft | 372 kts | 51° |
| 2026-05-04 08:29 | -37.37442 | 145.02703 | 13613 ft | 375 kts | 51° |
| 2026-05-04 08:29 | -37.35940 | 145.05372 | 14341 ft | 379 kts | 50° |
| 2026-05-04 08:29 | -37.34405 | 145.08093 | 15080 ft | 382 kts | 51° |
| 2026-05-04 08:31 | -37.23254 | 145.27756 | 19641 ft | 407 kts | 50° |
| 2026-05-04 08:33 | -37.11466 | 145.48414 | 23456 ft | 427 kts | 49° |
| 2026-05-04 08:33 | -37.09721 | 145.51449 | 23888 ft | 430 kts | 49° |
| 2026-05-04 08:35 | -36.97826 | 145.72066 | 26508 ft | 447 kts | 46° |
| 2026-05-04 08:35 | -36.96012 | 145.75196 | 26873 ft | 450 kts | 46° |
| 2026-05-04 08:35 | -36.94172 | 145.78375 | 27229 ft | 452 kts | 45° |
| 2026-05-04 08:35 | -36.92327 | 145.81566 | 27635 ft | 453 kts | 45° |
| 2026-05-04 08:37 | -36.81082 | 146.00929 | 29756 ft | 464 kts | 44° |
| 2026-05-04 08:37 | -36.79179 | 146.04186 | 30189 ft | 463 kts | 43° |
| 2026-05-04 08:37 | -36.77287 | 146.07432 | 30541 ft | 461 kts | 44° |
| 2026-05-04 08:38 | -36.75414 | 146.10643 | 30841 ft | 460 kts | 44° |
| 2026-05-04 08:38 | -36.73517 | 146.13888 | 31097 ft | 462 kts | 44° |
| 2026-05-04 08:38 | -36.71639 | 146.17094 | 31377 ft | 463 kts | 44° |
| 2026-05-04 08:40 | -36.58299 | 146.39812 | 33148 ft | 465 kts | 44° |
| 2026-05-04 08:40 | -36.56382 | 146.43063 | 33403 ft | 466 kts | 44° |
| 2026-05-04 08:40 | -36.54485 | 146.46288 | 33659 ft | 466 kts | 45° |
| 2026-05-04 08:41 | -36.52556 | 146.49554 | 33919 ft | 466 kts | 44° |
| 2026-05-04 08:41 | -36.50621 | 146.52811 | 34143 ft | 467 kts | 44° |
| 2026-05-04 08:41 | -36.48695 | 146.56062 | 34310 ft | 468 kts | 44° |
| 2026-05-04 08:41 | -36.46782 | 146.59282 | 34467 ft | 469 kts | 44° |
| 2026-05-04 08:42 | -36.44834 | 146.62570 | 34652 ft | 470 kts | 45° |
| 2026-05-04 08:42 | -36.42894 | 146.65847 | 34840 ft | 470 kts | 45° |
| 2026-05-04 08:42 | -36.40971 | 146.69078 | 35010 ft | 471 kts | 45° |
| 2026-05-04 08:43 | -36.37068 | 146.75643 | 35061 ft | 470 kts | 45° |
| 2026-05-04 08:43 | -36.33198 | 146.82140 | 35039 ft | 469 kts | 45° |
| 2026-05-04 08:44 | -36.29325 | 146.88627 | 35034 ft | 468 kts | 44° |
| 2026-05-04 08:46 | -36.13801 | 147.14468 | 35036 ft | 465 kts | 44° |
| 2026-05-04 08:46 | -36.09955 | 147.20853 | 35049 ft | 465 kts | 44° |
| 2026-05-04 08:47 | -36.06075 | 147.27270 | 35044 ft | 465 kts | 44° |
| 2026-05-04 08:47 | -36.02196 | 147.33671 | 35051 ft | 466 kts | 44° |
| 2026-05-04 08:48 | -35.98303 | 147.40098 | 35049 ft | 466 kts | 44° |
| 2026-05-04 08:48 | -35.94443 | 147.46461 | 35062 ft | 465 kts | 43° |
| 2026-05-04 08:49 | -35.90547 | 147.52857 | 35069 ft | 464 kts | 44° |
| 2026-05-04 08:50 | -35.76968 | 147.75068 | 35072 ft | 464 kts | 43° |
| 2026-05-04 08:51 | -35.73061 | 147.81441 | 35078 ft | 465 kts | 43° |
| 2026-05-04 08:51 | -35.69149 | 147.87788 | 35079 ft | 465 kts | 43° |
| 2026-05-04 08:52 | -35.65270 | 147.94107 | 35054 ft | 464 kts | 43° |
| 2026-05-04 08:52 | -35.61340 | 148.00457 | 35077 ft | 465 kts | 43° |
| 2026-05-04 08:54 | -35.45673 | 148.25724 | 35081 ft | 466 kts | 42° |
| 2026-05-04 08:55 | -35.41721 | 148.32071 | 35087 ft | 467 kts | 42° |
| 2026-05-04 08:55 | -35.37797 | 148.38387 | 35089 ft | 467 kts | 42° |
| 2026-05-04 09:01 | -34.96045 | 149.04577 | 35062 ft | 469 kts | 42° |
| 2026-05-04 09:01 | -34.92069 | 149.10838 | 35066 ft | 467 kts | 42° |
| 2026-05-04 09:02 | -34.88089 | 149.17071 | 35076 ft | 468 kts | 43° |
| 2026-05-04 09:02 | -34.84079 | 149.23338 | 35084 ft | 468 kts | 42° |
| 2026-05-04 09:03 | -34.80098 | 149.29577 | 35080 ft | 468 kts | 43° |
| 2026-05-04 09:03 | -34.76083 | 149.35834 | 35064 ft | 468 kts | 42° |
| 2026-05-04 09:04 | -34.72453 | 149.42534 | 35083 ft | 482 kts | 53° |
| 2026-05-04 09:04 | -34.69349 | 149.49751 | 35087 ft | 483 kts | 53° |
| 2026-05-04 09:05 | -34.66228 | 149.56947 | 35058 ft | 481 kts | 53° |
| 2026-05-04 09:05 | -34.64649 | 149.60560 | 34165 ft | 485 kts | 53° |
| 2026-05-04 09:05 | -34.63040 | 149.64214 | 32961 ft | 492 kts | 53° |
| 2026-05-04 09:05 | -34.61426 | 149.67885 | 32044 ft | 491 kts | 53° |
| 2026-05-04 09:06 | -34.59840 | 149.71493 | 31261 ft | 488 kts | 54° |
| 2026-05-04 09:07 | -34.48888 | 149.96337 | 25947 ft | 462 kts | 54° |
| 2026-05-04 09:08 | -34.47384 | 149.99724 | 25264 ft | 459 kts | 54° |
| 2026-05-04 09:08 | -34.45883 | 150.03125 | 24561 ft | 455 kts | 54° |
| 2026-05-04 09:08 | -34.44411 | 150.06514 | 23841 ft | 450 kts | 54° |
| 2026-05-04 09:08 | -34.42949 | 150.09859 | 23056 ft | 445 kts | 54° |
| 2026-05-04 09:09 | -34.41506 | 150.13122 | 22275 ft | 440 kts | 54° |
| 2026-05-04 09:09 | -34.40062 | 150.16376 | 21527 ft | 434 kts | 54° |
| 2026-05-04 09:09 | -34.38646 | 150.19521 | 20818 ft | 427 kts | 54° |
| 2026-05-04 09:09 | -34.37224 | 150.22663 | 20154 ft | 421 kts | 54° |
| 2026-05-04 09:10 | -34.35830 | 150.25766 | 19544 ft | 414 kts | 55° |
| 2026-05-04 09:10 | -34.34464 | 150.28810 | 18953 ft | 408 kts | 55° |
| 2026-05-04 09:10 | -34.33128 | 150.31789 | 18391 ft | 405 kts | 55° |
| 2026-05-04 09:10 | -34.31783 | 150.34789 | 17774 ft | 404 kts | 55° |
| 2026-05-04 09:11 | -34.30442 | 150.37782 | 17156 ft | 403 kts | 56° |
| 2026-05-04 09:11 | -34.29110 | 150.40758 | 16554 ft | 402 kts | 56° |
| 2026-05-04 09:11 | -34.27777 | 150.43731 | 15982 ft | 400 kts | 56° |
| 2026-05-04 09:11 | -34.26473 | 150.46655 | 15416 ft | 399 kts | 56° |
| 2026-05-04 09:12 | -34.25153 | 150.49606 | 14850 ft | 398 kts | 56° |
| 2026-05-04 09:12 | -34.23838 | 150.52543 | 14269 ft | 394 kts | 56° |
| 2026-05-04 09:14 | -34.15500 | 150.71138 | 10924 ft | 337 kts | 56° |
| 2026-05-04 09:14 | -34.14406 | 150.73578 | 10753 ft | 322 kts | 56° |
| 2026-05-04 09:14 | -34.13371 | 150.75883 | 10559 ft | 308 kts | 55° |
| 2026-05-04 09:14 | -34.12364 | 150.78124 | 10248 ft | 298 kts | 55° |
| 2026-05-04 09:15 | -34.11372 | 150.80314 | 9610 ft | 296 kts | 55° |
| 2026-05-04 09:15 | -34.10394 | 150.82480 | 9072 ft | 288 kts | 55° |
| 2026-05-04 09:15 | -34.09447 | 150.84591 | 8775 ft | 281 kts | 55° |
| 2026-05-04 09:15 | -34.08548 | 150.86621 | 8576 ft | 276 kts | 55° |
| 2026-05-04 09:17 | -34.04090 | 151.02974 | 6248 ft | 287 kts | 126° |
| 2026-05-04 09:18 | -34.05478 | 151.04764 | 6009 ft | 302 kts | 134° |
| 2026-05-04 09:18 | -34.06999 | 151.06565 | 5936 ft | 304 kts | 135° |
| 2026-05-04 09:18 | -34.08706 | 151.07962 | 5515 ft | 302 kts | 160° |
| 2026-05-04 09:18 | -34.10734 | 151.08592 | 5102 ft | 299 kts | 171° |
| 2026-05-04 09:19 | -34.12780 | 151.09062 | 4682 ft | 298 kts | 172° |
| 2026-05-04 09:19 | -34.14818 | 151.09543 | 4287 ft | 296 kts | 171° |
| 2026-05-04 09:19 | -34.16814 | 151.10034 | 3930 ft | 293 kts | 170° |
| 2026-05-04 09:19 | -34.18788 | 151.10530 | 3668 ft | 286 kts | 169° |
| 2026-05-04 09:20 | -34.20693 | 151.11068 | 3489 ft | 275 kts | 161° |
| 2026-05-04 09:20 | -34.21805 | 151.11766 | 3375 ft | 268 kts | 142° |
| 2026-05-04 09:20 | -34.23248 | 151.14041 | 3024 ft | 254 kts | 104° |
| 2026-05-04 09:20 | -34.23474 | 151.16119 | 2970 ft | 247 kts | 85° |
| 2026-05-04 09:21 | -34.23458 | 151.17518 | 2972 ft | 246 kts | 83° |
| 2026-05-04 09:21 | -34.23399 | 151.19554 | 2985 ft | 246 kts | 83° |
| 2026-05-04 09:21 | -34.23137 | 151.21576 | 2985 ft | 239 kts | 62° |
| 2026-05-04 09:21 | -34.22192 | 151.23130 | 2987 ft | 222 kts | 30° |
| 2026-05-04 09:22 | -34.20812 | 151.23789 | 3002 ft | 210 kts | 5° |
| 2026-05-04 09:22 | -34.19352 | 151.23856 | 3005 ft | 209 kts | 354° |
| 2026-05-04 09:22 | -34.17929 | 151.23649 | 3004 ft | 207 kts | 349° |
| 2026-05-04 09:22 | -34.16511 | 151.23302 | 3002 ft | 202 kts | 347° |
| 2026-05-04 09:23 | -34.15205 | 151.22966 | 2989 ft | 181 kts | 347° |
| 2026-05-04 09:23 | -34.14027 | 151.22658 | 3032 ft | 167 kts | 347° |
| 2026-05-04 09:23 | -34.12960 | 151.22380 | 3003 ft | 146 kts | 346° |
| 2026-05-04 09:23 | -34.11973 | 151.22121 | 2975 ft | 145 kts | 347° |
| 2026-05-04 09:25 | -34.05125 | 151.20332 | 1781 ft | 124 kts | 350° |
| 2026-05-04 09:25 | -34.04290 | 151.20114 | 1617 ft | 121 kts | 351° |
| 2026-05-04 09:26 | -34.03473 | 151.19902 | 1453 ft | 122 kts | 351° |
| 2026-05-04 09:26 | -34.02647 | 151.19686 | 1296 ft | 122 kts | 351° |
| 2026-05-04 09:26 | -34.01811 | 151.19468 | 1130 ft | 124 kts | 351° |
| 2026-05-04 09:26 | -34.00966 | 151.19248 | 974 ft | 125 kts | 350° |
| 2026-05-04 09:27 | -34.00117 | 151.19027 | 813 ft | 123 kts | 351° |
| 2026-05-04 09:27 | -33.99285 | 151.18810 | 648 ft | 123 kts | 351° |
| 2026-05-04 09:27 | -33.98456 | 151.18594 | 490 ft | 122 kts | 352° |
| 2026-05-04 09:27 | -33.97631 | 151.18376 | 325 ft | 119 kts | 351° |
| 2026-05-04 09:28 | -33.96802 | 151.18160 | 157 ft | 125 kts | 351° |
| 2026-05-04 09:28 | -33.95956 | 151.17940 | 42 ft | 121 kts | 352° |
| 2026-05-04 09:28 | -33.95219 | 151.17752 | 34 ft | 83 kts | 347° |
| 2026-05-04 09:28 | -33.94845 | 151.17658 | 35 ft | 36 kts | 350° |
| 2026-05-04 09:29 | -33.94628 | 151.17657 | 34 ft | 29 kts | 7° |
| 2026-05-04 09:29 | -33.94461 | 151.17707 | 35 ft | 23 kts | 18° |
| 2026-05-04 09:29 | -33.94297 | 151.17726 | 35 ft | 25 kts | 344° |
| 2026-05-04 09:29 | -33.94125 | 151.17670 | 34 ft | 27 kts | 348° |
| 2026-05-04 09:30 | -33.93938 | 151.17622 | 34 ft | 28 kts | 348° |
| 2026-05-04 09:30 | -33.93761 | 151.17576 | 34 ft | 23 kts | 348° |
| 2026-05-04 09:30 | -33.93597 | 151.17533 | 34 ft | 25 kts | 348° |
| 2026-05-04 09:30 | -33.93425 | 151.17502 | 35 ft | 24 kts | 15° |
| 2026-05-04 09:31 | -33.93259 | 151.17474 | 35 ft | 26 kts | 347° |
| 2026-05-04 09:31 | -33.93089 | 151.17428 | 36 ft | 23 kts | 348° |
| 2026-05-04 09:31 | -33.92986 | 151.17439 | 36 ft | 14 kts | 78° |
| 2026-05-04 09:31 | -33.93001 | 151.17558 | 36 ft | 16 kts | 102° |
| 2026-05-04 09:32 | -33.93029 | 151.17700 | 35 ft | 17 kts | 116° |
| 2026-05-04 09:32 | -33.93068 | 151.17839 | 35 ft | 16 kts | 97° |
| 2026-05-04 09:34 | -33.93153 | 151.17913 | 35 ft | 0 kts | 190° |